OI47 weather

Channel 10/Wbns-Tv Heliport
Columbus, Ohio, United States

Public forecast

Using degrees Fahrenheit for public forecast. Weather courtesy of forecast.io.

METAR (pilot weather report)

Closest report is John Glenn Columbus International Airport, 6.4 nm (11.9 km) ENE. Retrieved 2019/05/22 18:51 UTC (29 minutes ago):

KCMH 221851Z 19014G20KT 10SM SCT060 BKN090 OVC250 29/17 A3001 RMK AO2 SLP156 T02890167

TAF (pilot weather forecast)

Closest forecast is John Glenn Columbus International Airport, 6.4 nm (11.9 km) ENE. Retrieved 2019/05/22 18:33 UTC (47 minutes ago):

TAF KCMH 221730Z 2218/2318 19012G20KT P6SM SCT050 BKN200 FM222300 22009KT P6SM VCTS BKN045CB FM230300 18006KT P6SM VCSH BKN045 FM230800 19007KT P6SM SCT045 FM231100 20008KT P6SM VCSH BKN050 FM231500 23013G24KT P6SM BKN040